sensor_id;sensor_type;location;lat;lon;timestamp;temperature;humidity
57833;DHT22;43667;53.036;6.740;2023-02-04T00:00:50;5.70;99.90
57833;DHT22;43667;53.036;6.740;2023-02-04T00:03:15;5.70;99.90
57833;DHT22;43667;53.036;6.740;2023-02-04T00:05:42;5.70;99.90
57833;DHT22;43667;53.036;6.740;2023-02-04T00:08:08;5.70;99.90
57833;DHT22;43667;53.036;6.740;2023-02-04T00:10:35;5.70;99.90
57833;DHT22;43667;53.036;6.740;2023-02-04T00:13:01;5.80;99.90
57833;DHT22;43667;53.036;6.740;2023-02-04T00:15:27;5.70;99.90
57833;DHT22;43667;53.036;6.740;2023-02-04T00:17:53;5.80;99.90
57833;DHT22;43667;53.036;6.740;2023-02-04T00:20:18;5.80;99.90
57833;DHT22;43667;53.036;6.740;2023-02-04T00:22:44;5.80;99.90
57833;DHT22;43667;53.036;6.740;2023-02-04T00:25:10;5.80;99.90
57833;DHT22;43667;53.036;6.740;2023-02-04T00:27:36;5.90;99.90
57833;DHT22;43667;53.036;6.740;2023-02-04T00:30:03;5.90;99.90
57833;DHT22;43667;53.036;6.740;2023-02-04T00:32:29;6.00;99.90
57833;DHT22;43667;53.036;6.740;2023-02-04T00:34:54;6.00;99.90
57833;DHT22;43667;53.036;6.740;2023-02-04T00:37:20;6.00;99.90
57833;DHT22;43667;53.036;6.740;2023-02-04T00:39:46;6.00;99.90
57833;DHT22;43667;53.036;6.740;2023-02-04T00:42:11;6.00;99.90
57833;DHT22;43667;53.036;6.740;2023-02-04T00:44:37;6.00;99.90
57833;DHT22;43667;53.036;6.740;2023-02-04T00:47:03;6.00;99.90
57833;DHT22;43667;53.036;6.740;2023-02-04T00:49:29;6.00;99.90
57833;DHT22;43667;53.036;6.740;2023-02-04T00:51:55;6.00;99.90
57833;DHT22;43667;53.036;6.740;2023-02-04T00:54:20;6.00;99.90
57833;DHT22;43667;53.036;6.740;2023-02-04T00:56:46;6.00;99.90
57833;DHT22;43667;53.036;6.740;2023-02-04T00:59:12;6.00;99.90
57833;DHT22;43667;53.036;6.740;2023-02-04T01:01:37;6.00;99.90
57833;DHT22;43667;53.036;6.740;2023-02-04T01:04:03;6.10;99.90
57833;DHT22;43667;53.036;6.740;2023-02-04T01:06:29;6.10;99.90
57833;DHT22;43667;53.036;6.740;2023-02-04T01:08:55;6.10;99.90
57833;DHT22;43667;53.036;6.740;2023-02-04T01:11:20;6.00;99.90
57833;DHT22;43667;53.036;6.740;2023-02-04T01:13:46;6.00;99.90
57833;DHT22;43667;53.036;6.740;2023-02-04T01:16:12;6.00;99.90
57833;DHT22;43667;53.036;6.740;2023-02-04T01:18:37;6.00;99.90
57833;DHT22;43667;53.036;6.740;2023-02-04T01:21:03;6.00;99.90
57833;DHT22;43667;53.036;6.740;2023-02-04T01:23:29;6.00;99.90
57833;DHT22;43667;53.036;6.740;2023-02-04T01:25:54;6.00;99.90
57833;DHT22;43667;53.036;6.740;2023-02-04T01:28:20;6.00;99.90
57833;DHT22;43667;53.036;6.740;2023-02-04T01:30:45;6.00;99.90
57833;DHT22;43667;53.036;6.740;2023-02-04T01:33:11;6.00;99.90
57833;DHT22;43667;53.036;6.740;2023-02-04T01:35:36;6.00;99.90
57833;DHT22;43667;53.036;6.740;2023-02-04T01:38:02;6.10;99.90
57833;DHT22;43667;53.036;6.740;2023-02-04T01:40:28;6.10;99.90
57833;DHT22;43667;53.036;6.740;2023-02-04T01:42:54;6.10;99.90
57833;DHT22;43667;53.036;6.740;2023-02-04T01:45:19;6.10;99.90
57833;DHT22;43667;53.036;6.740;2023-02-04T01:47:46;6.10;99.90
57833;DHT22;43667;53.036;6.740;2023-02-04T01:50:13;6.10;99.90
57833;DHT22;43667;53.036;6.740;2023-02-04T01:52:40;6.10;99.90
57833;DHT22;43667;53.036;6.740;2023-02-04T01:55:12;6.10;99.90
57833;DHT22;43667;53.036;6.740;2023-02-04T01:57:39;6.10;99.90
57833;DHT22;43667;53.036;6.740;2023-02-04T02:00:13;6.10;99.90
57833;DHT22;43667;53.036;6.740;2023-02-04T02:02:49;6.10;99.90
57833;DHT22;43667;53.036;6.740;2023-02-04T02:05:21;6.10;99.90
57833;DHT22;43667;53.036;6.740;2023-02-04T02:07:48;6.10;99.90
57833;DHT22;43667;53.036;6.740;2023-02-04T02:10:15;6.20;99.90
57833;DHT22;43667;53.036;6.740;2023-02-04T02:12:41;6.20;99.90
57833;DHT22;43667;53.036;6.740;2023-02-04T02:15:08;6.20;99.90
57833;DHT22;43667;53.036;6.740;2023-02-04T02:17:34;6.20;99.90
57833;DHT22;43667;53.036;6.740;2023-02-04T02:20:01;6.20;99.90
57833;DHT22;43667;53.036;6.740;2023-02-04T02:24:58;6.20;99.90
57833;DHT22;43667;53.036;6.740;2023-02-04T02:27:24;6.20;99.90
57833;DHT22;43667;53.036;6.740;2023-02-04T02:29:50;6.20;99.90
57833;DHT22;43667;53.036;6.740;2023-02-04T02:32:16;6.20;99.90
57833;DHT22;43667;53.036;6.740;2023-02-04T02:34:42;6.30;99.90
57833;DHT22;43667;53.036;6.740;2023-02-04T02:37:09;6.30;99.90
57833;DHT22;43667;53.036;6.740;2023-02-04T02:39:36;6.30;99.90
57833;DHT22;43667;53.036;6.740;2023-02-04T02:42:03;6.30;99.90
57833;DHT22;43667;53.036;6.740;2023-02-04T02:44:29;6.30;99.90
57833;DHT22;43667;53.036;6.740;2023-02-04T02:46:55;6.30;99.90
57833;DHT22;43667;53.036;6.740;2023-02-04T02:49:21;6.30;99.90
57833;DHT22;43667;53.036;6.740;2023-02-04T02:51:47;6.30;99.90
57833;DHT22;43667;53.036;6.740;2023-02-04T02:54:26;6.30;99.90
57833;DHT22;43667;53.036;6.740;2023-02-04T02:56:52;6.30;99.90
57833;DHT22;43667;53.036;6.740;2023-02-04T02:59:19;6.20;99.90
57833;DHT22;43667;53.036;6.740;2023-02-04T03:01:48;6.30;99.90
57833;DHT22;43667;53.036;6.740;2023-02-04T03:04:16;6.30;99.90
57833;DHT22;43667;53.036;6.740;2023-02-04T03:06:41;6.30;99.90
57833;DHT22;43667;53.036;6.740;2023-02-04T03:09:07;6.30;99.90
57833;DHT22;43667;53.036;6.740;2023-02-04T03:11:33;6.20;99.90
57833;DHT22;43667;53.036;6.740;2023-02-04T03:13:59;6.20;99.90
57833;DHT22;43667;53.036;6.740;2023-02-04T03:16:29;6.30;99.90
57833;DHT22;43667;53.036;6.740;2023-02-04T03:18:58;6.30;99.90
57833;DHT22;43667;53.036;6.740;2023-02-04T03:21:24;6.30;99.90
57833;DHT22;43667;53.036;6.740;2023-02-04T03:23:49;6.30;99.90
57833;DHT22;43667;53.036;6.740;2023-02-04T03:26:16;6.40;99.90
57833;DHT22;43667;53.036;6.740;2023-02-04T03:28:42;6.40;99.90
57833;DHT22;43667;53.036;6.740;2023-02-04T03:31:07;6.40;99.90
57833;DHT22;43667;53.036;6.740;2023-02-04T03:33:33;6.40;99.90
57833;DHT22;43667;53.036;6.740;2023-02-04T03:36:00;6.40;99.90
57833;DHT22;43667;53.036;6.740;2023-02-04T03:38:26;6.40;99.90
57833;DHT22;43667;53.036;6.740;2023-02-04T03:40:52;6.30;99.90
57833;DHT22;43667;53.036;6.740;2023-02-04T03:43:18;6.30;99.90
57833;DHT22;43667;53.036;6.740;2023-02-04T03:45:44;6.30;99.90
57833;DHT22;43667;53.036;6.740;2023-02-04T03:48:09;6.30;99.90
57833;DHT22;43667;53.036;6.740;2023-02-04T03:50:35;6.30;99.90
57833;DHT22;43667;53.036;6.740;2023-02-04T03:53:00;6.30;99.90
57833;DHT22;43667;53.036;6.740;2023-02-04T03:55:26;6.20;99.90
57833;DHT22;43667;53.036;6.740;2023-02-04T03:57:52;6.20;99.90
57833;DHT22;43667;53.036;6.740;2023-02-04T04:00:18;6.20;99.90
57833;DHT22;43667;53.036;6.740;2023-02-04T04:02:44;6.20;99.90
57833;DHT22;43667;53.036;6.740;2023-02-04T04:05:10;6.20;99.90
57833;DHT22;43667;53.036;6.740;2023-02-04T04:07:36;6.20;99.90
57833;DHT22;43667;53.036;6.740;2023-02-04T04:10:01;6.10;99.90
57833;DHT22;43667;53.036;6.740;2023-02-04T04:12:27;6.10;99.90
57833;DHT22;43667;53.036;6.740;2023-02-04T04:14:53;6.10;99.90
57833;DHT22;43667;53.036;6.740;2023-02-04T04:17:18;6.10;99.90
57833;DHT22;43667;53.036;6.740;2023-02-04T04:19:44;6.10;99.90
57833;DHT22;43667;53.036;6.740;2023-02-04T04:22:10;6.10;99.90
57833;DHT22;43667;53.036;6.740;2023-02-04T04:24:35;6.10;99.90
57833;DHT22;43667;53.036;6.740;2023-02-04T04:27:01;6.00;99.90
57833;DHT22;43667;53.036;6.740;2023-02-04T04:29:27;6.10;99.90
57833;DHT22;43667;53.036;6.740;2023-02-04T04:31:52;6.00;99.90
57833;DHT22;43667;53.036;6.740;2023-02-04T04:34:18;6.00;99.90
57833;DHT22;43667;53.036;6.740;2023-02-04T04:36:44;6.00;99.90
57833;DHT22;43667;53.036;6.740;2023-02-04T04:39:09;6.00;99.90
57833;DHT22;43667;53.036;6.740;2023-02-04T04:41:35;6.00;99.90
57833;DHT22;43667;53.036;6.740;2023-02-04T04:44:00;6.00;99.90
57833;DHT22;43667;53.036;6.740;2023-02-04T04:46:26;6.00;99.90
57833;DHT22;43667;53.036;6.740;2023-02-04T04:48:51;6.00;99.90
57833;DHT22;43667;53.036;6.740;2023-02-04T04:51:17;6.00;99.90
57833;DHT22;43667;53.036;6.740;2023-02-04T04:53:42;5.90;99.90
57833;DHT22;43667;53.036;6.740;2023-02-04T04:56:08;5.90;99.90
57833;DHT22;43667;53.036;6.740;2023-02-04T04:58:34;5.90;99.90
57833;DHT22;43667;53.036;6.740;2023-02-04T05:00:59;5.90;99.90
57833;DHT22;43667;53.036;6.740;2023-02-04T05:03:25;5.90;99.90
57833;DHT22;43667;53.036;6.740;2023-02-04T05:05:50;5.90;99.90
57833;DHT22;43667;53.036;6.740;2023-02-04T05:08:16;5.90;99.90
57833;DHT22;43667;53.036;6.740;2023-02-04T05:10:43;5.80;99.90
57833;DHT22;43667;53.036;6.740;2023-02-04T05:13:09;5.90;99.90
57833;DHT22;43667;53.036;6.740;2023-02-04T05:15:34;5.80;99.90
57833;DHT22;43667;53.036;6.740;2023-02-04T05:18:00;5.80;99.90
57833;DHT22;43667;53.036;6.740;2023-02-04T05:20:26;5.80;99.90
57833;DHT22;43667;53.036;6.740;2023-02-04T05:22:52;5.80;99.90
57833;DHT22;43667;53.036;6.740;2023-02-04T05:25:17;5.80;99.90
57833;DHT22;43667;53.036;6.740;2023-02-04T05:27:43;5.80;99.90
57833;DHT22;43667;53.036;6.740;2023-02-04T05:30:10;5.70;99.90
57833;DHT22;43667;53.036;6.740;2023-02-04T05:32:37;5.70;99.90
57833;DHT22;43667;53.036;6.740;2023-02-04T05:35:02;5.70;99.90
57833;DHT22;43667;53.036;6.740;2023-02-04T05:37:28;5.70;99.90
57833;DHT22;43667;53.036;6.740;2023-02-04T05:39:54;5.70;99.90
57833;DHT22;43667;53.036;6.740;2023-02-04T05:42:19;5.70;99.90
57833;DHT22;43667;53.036;6.740;2023-02-04T05:44:45;5.60;99.90
57833;DHT22;43667;53.036;6.740;2023-02-04T05:47:10;5.60;99.90
57833;DHT22;43667;53.036;6.740;2023-02-04T05:49:36;5.60;99.90
57833;DHT22;43667;53.036;6.740;2023-02-04T05:52:01;5.60;99.90
57833;DHT22;43667;53.036;6.740;2023-02-04T05:54:27;5.60;99.90
57833;DHT22;43667;53.036;6.740;2023-02-04T05:56:53;5.60;99.90
57833;DHT22;43667;53.036;6.740;2023-02-04T05:59:18;5.50;99.90
57833;DHT22;43667;53.036;6.740;2023-02-04T06:01:44;5.50;99.90
57833;DHT22;43667;53.036;6.740;2023-02-04T06:04:09;5.50;99.90
57833;DHT22;43667;53.036;6.740;2023-02-04T06:06:35;5.50;99.90
57833;DHT22;43667;53.036;6.740;2023-02-04T06:09:00;5.40;99.90
57833;DHT22;43667;53.036;6.740;2023-02-04T06:11:26;5.40;99.90
57833;DHT22;43667;53.036;6.740;2023-02-04T06:13:52;5.40;99.90
57833;DHT22;43667;53.036;6.740;2023-02-04T06:16:17;5.40;99.90
57833;DHT22;43667;53.036;6.740;2023-02-04T06:18:43;5.40;99.90
57833;DHT22;43667;53.036;6.740;2023-02-04T06:21:08;5.40;99.90
57833;DHT22;43667;53.036;6.740;2023-02-04T06:23:34;5.40;99.90
57833;DHT22;43667;53.036;6.740;2023-02-04T06:26:01;5.40;99.90
57833;DHT22;43667;53.036;6.740;2023-02-04T06:28:27;5.40;99.90
57833;DHT22;43667;53.036;6.740;2023-02-04T06:30:52;5.40;99.90
57833;DHT22;43667;53.036;6.740;2023-02-04T06:33:18;5.40;99.90
57833;DHT22;43667;53.036;6.740;2023-02-04T06:35:43;5.30;99.90
57833;DHT22;43667;53.036;6.740;2023-02-04T06:38:09;5.30;99.90
57833;DHT22;43667;53.036;6.740;2023-02-04T06:40:34;5.30;99.90
57833;DHT22;43667;53.036;6.740;2023-02-04T06:43:00;5.30;99.90
57833;DHT22;43667;53.036;6.740;2023-02-04T06:45:25;5.30;99.90
57833;DHT22;43667;53.036;6.740;2023-02-04T06:47:51;5.30;99.90
57833;DHT22;43667;53.036;6.740;2023-02-04T06:50:17;5.30;99.90
57833;DHT22;43667;53.036;6.740;2023-02-04T06:52:45;5.30;99.90
57833;DHT22;43667;53.036;6.740;2023-02-04T06:55:12;5.30;99.90
57833;DHT22;43667;53.036;6.740;2023-02-04T06:57:38;5.30;99.90
57833;DHT22;43667;53.036;6.740;2023-02-04T07:00:04;5.30;99.90
57833;DHT22;43667;53.036;6.740;2023-02-04T07:02:30;5.30;99.90
57833;DHT22;43667;53.036;6.740;2023-02-04T07:04:56;5.30;99.90
57833;DHT22;43667;53.036;6.740;2023-02-04T07:07:21;5.30;99.90
57833;DHT22;43667;53.036;6.740;2023-02-04T07:09:47;5.30;99.90
57833;DHT22;43667;53.036;6.740;2023-02-04T07:12:13;5.30;99.90
57833;DHT22;43667;53.036;6.740;2023-02-04T07:14:38;5.30;99.90
57833;DHT22;43667;53.036;6.740;2023-02-04T07:17:04;5.20;99.90
57833;DHT22;43667;53.036;6.740;2023-02-04T07:19:29;5.20;99.90
57833;DHT22;43667;53.036;6.740;2023-02-04T07:21:55;5.20;99.90
57833;DHT22;43667;53.036;6.740;2023-02-04T07:24:22;5.20;99.90
57833;DHT22;43667;53.036;6.740;2023-02-04T07:26:48;5.20;99.90
57833;DHT22;43667;53.036;6.740;2023-02-04T07:29:14;5.10;99.90
57833;DHT22;43667;53.036;6.740;2023-02-04T07:31:39;5.10;99.90
57833;DHT22;43667;53.036;6.740;2023-02-04T07:34:05;5.10;99.90
57833;DHT22;43667;53.036;6.740;2023-02-04T07:36:30;5.10;99.90
57833;DHT22;43667;53.036;6.740;2023-02-04T07:38:56;5.10;99.90
57833;DHT22;43667;53.036;6.740;2023-02-04T07:41:22;5.10;99.90
57833;DHT22;43667;53.036;6.740;2023-02-04T07:43:47;5.10;99.90
57833;DHT22;43667;53.036;6.740;2023-02-04T07:46:13;5.10;99.90
57833;DHT22;43667;53.036;6.740;2023-02-04T07:48:38;5.10;99.90
57833;DHT22;43667;53.036;6.740;2023-02-04T07:51:04;5.10;99.90
57833;DHT22;43667;53.036;6.740;2023-02-04T07:53:30;5.10;99.90
57833;DHT22;43667;53.036;6.740;2023-02-04T07:55:55;5.10;99.90
57833;DHT22;43667;53.036;6.740;2023-02-04T07:58:21;5.20;99.90
57833;DHT22;43667;53.036;6.740;2023-02-04T08:00:47;5.10;99.90
57833;DHT22;43667;53.036;6.740;2023-02-04T08:03:13;5.20;99.90
57833;DHT22;43667;53.036;6.740;2023-02-04T08:05:38;5.20;99.90
57833;DHT22;43667;53.036;6.740;2023-02-04T08:08:04;5.20;99.90
57833;DHT22;43667;53.036;6.740;2023-02-04T08:10:30;5.20;99.90
57833;DHT22;43667;53.036;6.740;2023-02-04T08:12:55;5.30;99.90
57833;DHT22;43667;53.036;6.740;2023-02-04T08:15:21;5.30;99.90
57833;DHT22;43667;53.036;6.740;2023-02-04T08:17:46;5.30;99.90
57833;DHT22;43667;53.036;6.740;2023-02-04T08:20:12;5.30;99.90
57833;DHT22;43667;53.036;6.740;2023-02-04T08:22:38;5.40;99.90
57833;DHT22;43667;53.036;6.740;2023-02-04T08:25:04;5.40;99.90
57833;DHT22;43667;53.036;6.740;2023-02-04T08:27:30;5.40;99.90
57833;DHT22;43667;53.036;6.740;2023-02-04T08:29:55;5.40;99.90
57833;DHT22;43667;53.036;6.740;2023-02-04T08:32:21;5.40;99.90
57833;DHT22;43667;53.036;6.740;2023-02-04T08:34:47;5.40;99.90
57833;DHT22;43667;53.036;6.740;2023-02-04T08:37:13;5.50;99.90
57833;DHT22;43667;53.036;6.740;2023-02-04T08:39:39;5.40;99.90
57833;DHT22;43667;53.036;6.740;2023-02-04T08:42:12;5.50;99.90
57833;DHT22;43667;53.036;6.740;2023-02-04T08:44:37;5.50;99.90
57833;DHT22;43667;53.036;6.740;2023-02-04T08:47:03;5.50;99.90
57833;DHT22;43667;53.036;6.740;2023-02-04T08:49:28;5.60;99.90
57833;DHT22;43667;53.036;6.740;2023-02-04T08:51:54;5.60;99.90
57833;DHT22;43667;53.036;6.740;2023-02-04T08:54:20;5.70;99.90
57833;DHT22;43667;53.036;6.740;2023-02-04T08:56:45;5.70;99.90
57833;DHT22;43667;53.036;6.740;2023-02-04T08:59:11;5.70;99.90
57833;DHT22;43667;53.036;6.740;2023-02-04T09:01:36;5.70;99.90
57833;DHT22;43667;53.036;6.740;2023-02-04T09:04:02;5.80;99.90
57833;DHT22;43667;53.036;6.740;2023-02-04T09:06:28;5.80;99.90
57833;DHT22;43667;53.036;6.740;2023-02-04T09:08:53;5.90;99.90
57833;DHT22;43667;53.036;6.740;2023-02-04T09:11:19;5.90;99.90
57833;DHT22;43667;53.036;6.740;2023-02-04T09:13:45;5.90;99.90
57833;DHT22;43667;53.036;6.740;2023-02-04T09:16:10;5.90;99.90
57833;DHT22;43667;53.036;6.740;2023-02-04T09:18:36;6.00;99.90
57833;DHT22;43667;53.036;6.740;2023-02-04T09:21:02;6.00;99.90
57833;DHT22;43667;53.036;6.740;2023-02-04T09:23:27;6.10;99.90
57833;DHT22;43667;53.036;6.740;2023-02-04T09:25:54;6.10;99.90
57833;DHT22;43667;53.036;6.740;2023-02-04T09:28:20;6.10;99.90
57833;DHT22;43667;53.036;6.740;2023-02-04T09:30:46;6.10;99.90
57833;DHT22;43667;53.036;6.740;2023-02-04T09:33:13;6.20;99.90
57833;DHT22;43667;53.036;6.740;2023-02-04T09:35:39;6.20;99.90
57833;DHT22;43667;53.036;6.740;2023-02-04T09:38:04;6.20;99.90
57833;DHT22;43667;53.036;6.740;2023-02-04T09:40:32;6.20;99.90
57833;DHT22;43667;53.036;6.740;2023-02-04T09:42:59;6.30;99.90
57833;DHT22;43667;53.036;6.740;2023-02-04T09:45:27;6.30;99.90
57833;DHT22;43667;53.036;6.740;2023-02-04T09:47:55;6.30;99.90
57833;DHT22;43667;53.036;6.740;2023-02-04T09:50:23;6.30;99.90
57833;DHT22;43667;53.036;6.740;2023-02-04T09:52:52;6.40;99.90
57833;DHT22;43667;53.036;6.740;2023-02-04T09:55:28;6.30;99.90
57833;DHT22;43667;53.036;6.740;2023-02-04T09:57:54;6.30;99.90
57833;DHT22;43667;53.036;6.740;2023-02-04T10:00:25;6.30;99.90
57833;DHT22;43667;53.036;6.740;2023-02-04T10:02:51;6.30;99.90
57833;DHT22;43667;53.036;6.740;2023-02-04T10:05:19;6.40;99.90
57833;DHT22;43667;53.036;6.740;2023-02-04T10:07:46;6.40;99.90
57833;DHT22;43667;53.036;6.740;2023-02-04T10:10:16;6.50;99.90
57833;DHT22;43667;53.036;6.740;2023-02-04T10:12:44;6.50;99.90
57833;DHT22;43667;53.036;6.740;2023-02-04T10:15:14;6.50;99.90
57833;DHT22;43667;53.036;6.740;2023-02-04T10:17:41;6.60;99.90
57833;DHT22;43667;53.036;6.740;2023-02-04T10:20:18;6.60;99.90
57833;DHT22;43667;53.036;6.740;2023-02-04T10:22:45;6.70;99.90
57833;DHT22;43667;53.036;6.740;2023-02-04T10:25:13;6.70;99.90
57833;DHT22;43667;53.036;6.740;2023-02-04T10:27:53;6.80;99.90
57833;DHT22;43667;53.036;6.740;2023-02-04T10:30:25;6.80;99.90
57833;DHT22;43667;53.036;6.740;2023-02-04T10:32:51;6.80;99.90
57833;DHT22;43667;53.036;6.740;2023-02-04T10:35:20;6.80;99.90
57833;DHT22;43667;53.036;6.740;2023-02-04T10:37:47;6.90;99.90
57833;DHT22;43667;53.036;6.740;2023-02-04T10:40:32;7.00;99.90
57833;DHT22;43667;53.036;6.740;2023-02-04T10:42:59;7.00;99.90
57833;DHT22;43667;53.036;6.740;2023-02-04T10:45:31;7.00;99.90
57833;DHT22;43667;53.036;6.740;2023-02-04T10:47:56;7.00;99.90
57833;DHT22;43667;53.036;6.740;2023-02-04T10:50:24;7.10;99.90
57833;DHT22;43667;53.036;6.740;2023-02-04T10:53:01;7.10;99.90
57833;DHT22;43667;53.036;6.740;2023-02-04T10:55:46;7.20;99.90
57833;DHT22;43667;53.036;6.740;2023-02-04T10:58:19;7.30;99.90
57833;DHT22;43667;53.036;6.740;2023-02-04T11:00:47;7.40;99.90
57833;DHT22;43667;53.036;6.740;2023-02-04T11:05:49;7.50;99.90
57833;DHT22;43667;53.036;6.740;2023-02-04T11:08:33;7.60;99.90
57833;DHT22;43667;53.036;6.740;2023-02-04T11:11:04;7.80;99.90
57833;DHT22;43667;53.036;6.740;2023-02-04T11:23:47;8.60;99.90
57833;DHT22;43667;53.036;6.740;2023-02-04T11:26:19;8.50;99.90
57833;DHT22;43667;53.036;6.740;2023-02-04T11:39:21;8.30;99.90
57833;DHT22;43667;53.036;6.740;2023-02-04T11:41:48;8.30;99.90
57833;DHT22;43667;53.036;6.740;2023-02-04T11:44:15;8.30;99.90
57833;DHT22;43667;53.036;6.740;2023-02-04T11:46:41;8.20;99.90
57833;DHT22;43667;53.036;6.740;2023-02-04T11:49:17;8.20;99.90
57833;DHT22;43667;53.036;6.740;2023-02-04T11:51:43;8.10;99.90
57833;DHT22;43667;53.036;6.740;2023-02-04T11:54:14;8.00;99.90
57833;DHT22;43667;53.036;6.740;2023-02-04T11:56:43;8.00;99.90
57833;DHT22;43667;53.036;6.740;2023-02-04T11:59:11;7.90;99.90
57833;DHT22;43667;53.036;6.740;2023-02-04T12:01:37;8.00;99.90
57833;DHT22;43667;53.036;6.740;2023-02-04T12:04:06;8.10;99.90
57833;DHT22;43667;53.036;6.740;2023-02-04T12:06:35;8.30;99.90
57833;DHT22;43667;53.036;6.740;2023-02-04T12:09:28;8.50;99.90
57833;DHT22;43667;53.036;6.740;2023-02-04T12:11:56;8.70;99.90
57833;DHT22;43667;53.036;6.740;2023-02-04T12:14:28;8.80;99.90
57833;DHT22;43667;53.036;6.740;2023-02-04T12:16:55;8.80;99.90
57833;DHT22;43667;53.036;6.740;2023-02-04T12:19:21;8.80;99.90
57833;DHT22;43667;53.036;6.740;2023-02-04T12:21:47;9.00;99.90
57833;DHT22;43667;53.036;6.740;2023-02-04T12:24:13;9.10;99.90
57833;DHT22;43667;53.036;6.740;2023-02-04T12:26:39;9.10;99.90
57833;DHT22;43667;53.036;6.740;2023-02-04T12:29:04;9.10;99.90
57833;DHT22;43667;53.036;6.740;2023-02-04T12:31:30;9.10;99.90
57833;DHT22;43667;53.036;6.740;2023-02-04T12:33:56;9.00;99.90
57833;DHT22;43667;53.036;6.740;2023-02-04T12:36:22;9.00;99.90
57833;DHT22;43667;53.036;6.740;2023-02-04T12:38:47;9.00;99.90
57833;DHT22;43667;53.036;6.740;2023-02-04T12:41:13;9.00;99.90
57833;DHT22;43667;53.036;6.740;2023-02-04T12:43:38;9.00;99.90
57833;DHT22;43667;53.036;6.740;2023-02-04T12:46:04;9.10;99.90
57833;DHT22;43667;53.036;6.740;2023-02-04T12:48:30;9.10;99.90
57833;DHT22;43667;53.036;6.740;2023-02-04T12:50:55;9.10;99.90
57833;DHT22;43667;53.036;6.740;2023-02-04T12:53:21;9.10;99.90
57833;DHT22;43667;53.036;6.740;2023-02-04T12:55:46;9.20;99.90
57833;DHT22;43667;53.036;6.740;2023-02-04T12:58:13;9.20;99.90
57833;DHT22;43667;53.036;6.740;2023-02-04T13:00:38;9.20;99.90
57833;DHT22;43667;53.036;6.740;2023-02-04T13:03:04;9.10;99.90
57833;DHT22;43667;53.036;6.740;2023-02-04T13:05:30;9.00;99.90
57833;DHT22;43667;53.036;6.740;2023-02-04T13:07:56;9.00;99.90
57833;DHT22;43667;53.036;6.740;2023-02-04T13:10:22;9.10;99.90
57833;DHT22;43667;53.036;6.740;2023-02-04T13:12:49;9.10;99.90
57833;DHT22;43667;53.036;6.740;2023-02-04T13:15:15;9.00;99.90
57833;DHT22;43667;53.036;6.740;2023-02-04T13:17:41;9.00;99.90
57833;DHT22;43667;53.036;6.740;2023-02-04T13:20:07;9.00;99.90
57833;DHT22;43667;53.036;6.740;2023-02-04T13:22:33;9.10;99.90
57833;DHT22;43667;53.036;6.740;2023-02-04T13:24:58;9.10;99.90
57833;DHT22;43667;53.036;6.740;2023-02-04T13:27:24;9.10;99.90
57833;DHT22;43667;53.036;6.740;2023-02-04T13:29:49;9.20;99.90
57833;DHT22;43667;53.036;6.740;2023-02-04T13:32:15;9.20;99.90
57833;DHT22;43667;53.036;6.740;2023-02-04T13:34:41;9.30;99.90
57833;DHT22;43667;53.036;6.740;2023-02-04T13:37:06;9.30;99.90
57833;DHT22;43667;53.036;6.740;2023-02-04T13:39:32;9.30;99.90
57833;DHT22;43667;53.036;6.740;2023-02-04T13:41:57;9.20;99.90
57833;DHT22;43667;53.036;6.740;2023-02-04T13:44:23;9.20;99.90
57833;DHT22;43667;53.036;6.740;2023-02-04T13:46:48;9.20;99.90
57833;DHT22;43667;53.036;6.740;2023-02-04T13:49:14;9.20;99.90
57833;DHT22;43667;53.036;6.740;2023-02-04T13:51:40;9.10;99.90
57833;DHT22;43667;53.036;6.740;2023-02-04T13:54:05;9.10;99.90
57833;DHT22;43667;53.036;6.740;2023-02-04T13:56:31;8.90;99.90
57833;DHT22;43667;53.036;6.740;2023-02-04T13:58:58;8.90;99.90
57833;DHT22;43667;53.036;6.740;2023-02-04T14:01:23;8.80;99.90
57833;DHT22;43667;53.036;6.740;2023-02-04T14:03:49;8.80;99.90
57833;DHT22;43667;53.036;6.740;2023-02-04T14:06:14;8.80;99.90
57833;DHT22;43667;53.036;6.740;2023-02-04T14:08:40;8.80;99.90
57833;DHT22;43667;53.036;6.740;2023-02-04T14:11:05;8.70;99.90
57833;DHT22;43667;53.036;6.740;2023-02-04T14:13:32;8.60;99.90
57833;DHT22;43667;53.036;6.740;2023-02-04T14:15:57;8.60;99.90
57833;DHT22;43667;53.036;6.740;2023-02-04T14:18:23;8.60;99.90
57833;DHT22;43667;53.036;6.740;2023-02-04T14:20:48;8.60;99.90
57833;DHT22;43667;53.036;6.740;2023-02-04T14:23:14;8.70;99.90
57833;DHT22;43667;53.036;6.740;2023-02-04T14:25:40;8.60;99.90
57833;DHT22;43667;53.036;6.740;2023-02-04T14:28:06;8.70;99.90
57833;DHT22;43667;53.036;6.740;2023-02-04T14:30:32;8.70;99.90
57833;DHT22;43667;53.036;6.740;2023-02-04T14:32:57;8.70;99.90
57833;DHT22;43667;53.036;6.740;2023-02-04T14:35:24;8.60;99.90
57833;DHT22;43667;53.036;6.740;2023-02-04T14:37:50;8.60;99.90
57833;DHT22;43667;53.036;6.740;2023-02-04T14:40:18;8.60;99.90
57833;DHT22;43667;53.036;6.740;2023-02-04T14:42:44;8.50;99.90
57833;DHT22;43667;53.036;6.740;2023-02-04T14:45:11;8.50;99.90
57833;DHT22;43667;53.036;6.740;2023-02-04T14:47:38;8.40;99.90
57833;DHT22;43667;53.036;6.740;2023-02-04T14:50:07;8.30;99.90
57833;DHT22;43667;53.036;6.740;2023-02-04T14:52:32;8.20;99.90
57833;DHT22;43667;53.036;6.740;2023-02-04T14:54:58;8.20;99.90
57833;DHT22;43667;53.036;6.740;2023-02-04T14:57:24;8.10;99.90
57833;DHT22;43667;53.036;6.740;2023-02-04T14:59:50;8.10;99.90
57833;DHT22;43667;53.036;6.740;2023-02-04T15:02:15;8.00;99.90
57833;DHT22;43667;53.036;6.740;2023-02-04T15:04:44;8.00;99.90
57833;DHT22;43667;53.036;6.740;2023-02-04T15:07:11;7.90;99.90
57833;DHT22;43667;53.036;6.740;2023-02-04T15:09:37;7.80;99.90
57833;DHT22;43667;53.036;6.740;2023-02-04T15:12:03;7.80;99.90
57833;DHT22;43667;53.036;6.740;2023-02-04T15:14:29;7.70;99.90
57833;DHT22;43667;53.036;6.740;2023-02-04T15:16:55;7.70;99.90
57833;DHT22;43667;53.036;6.740;2023-02-04T15:19:20;7.60;99.90
57833;DHT22;43667;53.036;6.740;2023-02-04T15:21:48;7.60;99.90
57833;DHT22;43667;53.036;6.740;2023-02-04T15:24:14;7.50;99.90
57833;DHT22;43667;53.036;6.740;2023-02-04T15:26:39;7.50;99.90
57833;DHT22;43667;53.036;6.740;2023-02-04T15:29:05;7.40;99.90
57833;DHT22;43667;53.036;6.740;2023-02-04T15:31:31;7.30;99.90
57833;DHT22;43667;53.036;6.740;2023-02-04T15:33:57;7.30;99.90
57833;DHT22;43667;53.036;6.740;2023-02-04T15:36:22;7.20;99.90
57833;DHT22;43667;53.036;6.740;2023-02-04T15:38:48;7.20;99.90
57833;DHT22;43667;53.036;6.740;2023-02-04T15:41:14;7.20;99.90
57833;DHT22;43667;53.036;6.740;2023-02-04T15:43:39;7.10;99.90
57833;DHT22;43667;53.036;6.740;2023-02-04T15:46:05;7.10;99.90
57833;DHT22;43667;53.036;6.740;2023-02-04T15:48:31;7.00;99.90
57833;DHT22;43667;53.036;6.740;2023-02-04T15:50:56;6.90;99.90
57833;DHT22;43667;53.036;6.740;2023-02-04T15:53:22;6.90;99.90
57833;DHT22;43667;53.036;6.740;2023-02-04T15:55:48;6.80;99.90
57833;DHT22;43667;53.036;6.740;2023-02-04T15:58:14;6.80;99.90
57833;DHT22;43667;53.036;6.740;2023-02-04T16:00:40;6.70;99.90
57833;DHT22;43667;53.036;6.740;2023-02-04T16:03:07;6.60;99.90
57833;DHT22;43667;53.036;6.740;2023-02-04T16:05:32;6.50;99.90